sensor_id;sensor_type;location;lat;lon;timestamp;temperature;humidity
43089;DHT22;28709;52.030;5.652;2022-12-17T00:00:09;1.10;99.90
43089;DHT22;28709;52.030;5.652;2022-12-17T00:02:58;1.20;99.90
43089;DHT22;28709;52.030;5.652;2022-12-17T00:05:43;1.10;99.90
43089;DHT22;28709;52.030;5.652;2022-12-17T00:08:27;1.10;99.90
43089;DHT22;28709;52.030;5.652;2022-12-17T00:11:11;1.10;99.90
43089;DHT22;28709;52.030;5.652;2022-12-17T00:13:55;1.10;99.90
43089;DHT22;28709;52.030;5.652;2022-12-17T00:16:39;1.10;99.90
43089;DHT22;28709;52.030;5.652;2022-12-17T00:19:23;1.10;99.90
43089;DHT22;28709;52.030;5.652;2022-12-17T00:22:07;1.10;99.90
43089;DHT22;28709;52.030;5.652;2022-12-17T00:24:52;1.10;99.90
43089;DHT22;28709;52.030;5.652;2022-12-17T00:27:36;1.10;99.90
43089;DHT22;28709;52.030;5.652;2022-12-17T00:30:20;1.10;99.90
43089;DHT22;28709;52.030;5.652;2022-12-17T00:33:04;1.10;99.90
43089;DHT22;28709;52.030;5.652;2022-12-17T00:35:52;1.10;99.90
43089;DHT22;28709;52.030;5.652;2022-12-17T00:38:37;1.10;99.90
43089;DHT22;28709;52.030;5.652;2022-12-17T00:41:21;1.10;99.90
43089;DHT22;28709;52.030;5.652;2022-12-17T00:44:05;1.10;99.90
43089;DHT22;28709;52.030;5.652;2022-12-17T00:46:49;1.10;99.90
43089;DHT22;28709;52.030;5.652;2022-12-17T00:49:33;1.10;99.90
43089;DHT22;28709;52.030;5.652;2022-12-17T00:52:17;1.20;99.90
43089;DHT22;28709;52.030;5.652;2022-12-17T00:55:01;1.10;99.90
43089;DHT22;28709;52.030;5.652;2022-12-17T00:57:45;1.10;99.90
43089;DHT22;28709;52.030;5.652;2022-12-17T01:00:29;1.10;99.90
43089;DHT22;28709;52.030;5.652;2022-12-17T01:03:13;1.10;99.90
43089;DHT22;28709;52.030;5.652;2022-12-17T01:06:01;1.10;99.90
43089;DHT22;28709;52.030;5.652;2022-12-17T01:08:46;1.10;99.90
43089;DHT22;28709;52.030;5.652;2022-12-17T01:11:30;1.10;99.90
43089;DHT22;28709;52.030;5.652;2022-12-17T01:14:14;1.10;99.90
43089;DHT22;28709;52.030;5.652;2022-12-17T01:16:58;1.10;99.90
43089;DHT22;28709;52.030;5.652;2022-12-17T01:19:56;1.00;99.90
43089;DHT22;28709;52.030;5.652;2022-12-17T01:22:40;1.00;99.90
43089;DHT22;28709;52.030;5.652;2022-12-17T01:25:24;1.00;99.90
43089;DHT22;28709;52.030;5.652;2022-12-17T01:28:09;1.00;99.90
43089;DHT22;28709;52.030;5.652;2022-12-17T01:30:55;1.00;99.90
43089;DHT22;28709;52.030;5.652;2022-12-17T01:33:40;1.00;99.90
43089;DHT22;28709;52.030;5.652;2022-12-17T01:36:23;1.00;99.90
43089;DHT22;28709;52.030;5.652;2022-12-17T01:39:08;1.10;99.90
43089;DHT22;28709;52.030;5.652;2022-12-17T01:41:52;1.00;99.90
43089;DHT22;28709;52.030;5.652;2022-12-17T01:44:51;1.00;99.90
43089;DHT22;28709;52.030;5.652;2022-12-17T01:47:48;1.00;99.90
43089;DHT22;28709;52.030;5.652;2022-12-17T01:50:42;1.00;99.90
43089;DHT22;28709;52.030;5.652;2022-12-17T01:53:30;1.00;99.90
43089;DHT22;28709;52.030;5.652;2022-12-17T01:56:15;0.90;99.90
43089;DHT22;28709;52.030;5.652;2022-12-17T01:58:59;0.90;99.90
43089;DHT22;28709;52.030;5.652;2022-12-17T02:01:44;0.80;99.90
43089;DHT22;28709;52.030;5.652;2022-12-17T02:04:29;0.80;99.90
43089;DHT22;28709;52.030;5.652;2022-12-17T02:13:37;0.70;99.90
43089;DHT22;28709;52.030;5.652;2022-12-17T02:16:30;0.80;99.90
43089;DHT22;28709;52.030;5.652;2022-12-17T02:28:24;0.80;99.90
43089;DHT22;28709;52.030;5.652;2022-12-17T02:31:10;0.80;99.90
43089;DHT22;28709;52.030;5.652;2022-12-17T02:33:54;0.80;99.90
43089;DHT22;28709;52.030;5.652;2022-12-17T02:36:39;0.80;99.90
43089;DHT22;28709;52.030;5.652;2022-12-17T02:39:24;0.80;99.90
43089;DHT22;28709;52.030;5.652;2022-12-17T02:42:08;0.80;99.90
43089;DHT22;28709;52.030;5.652;2022-12-17T02:44:52;0.70;99.90
43089;DHT22;28709;52.030;5.652;2022-12-17T02:47:38;0.80;99.90
43089;DHT22;28709;52.030;5.652;2022-12-17T02:50:22;0.80;99.90
43089;DHT22;28709;52.030;5.652;2022-12-17T02:53:07;0.80;99.90
43089;DHT22;28709;52.030;5.652;2022-12-17T02:55:51;0.80;99.90
43089;DHT22;28709;52.030;5.652;2022-12-17T02:58:35;0.80;99.90
43089;DHT22;28709;52.030;5.652;2022-12-17T03:01:19;0.80;99.90
43089;DHT22;28709;52.030;5.652;2022-12-17T03:04:03;0.70;99.90
43089;DHT22;28709;52.030;5.652;2022-12-17T03:06:47;0.70;99.90
43089;DHT22;28709;52.030;5.652;2022-12-17T03:09:31;0.70;99.90
43089;DHT22;28709;52.030;5.652;2022-12-17T03:12:15;0.80;99.90
43089;DHT22;28709;52.030;5.652;2022-12-17T03:14:59;0.80;99.90
43089;DHT22;28709;52.030;5.652;2022-12-17T03:17:43;0.70;99.90
43089;DHT22;28709;52.030;5.652;2022-12-17T03:20:27;0.80;99.90
43089;DHT22;28709;52.030;5.652;2022-12-17T03:23:11;0.70;99.90
43089;DHT22;28709;52.030;5.652;2022-12-17T03:26:00;0.70;99.90
43089;DHT22;28709;52.030;5.652;2022-12-17T03:28:45;0.70;99.90
43089;DHT22;28709;52.030;5.652;2022-12-17T03:31:29;0.70;99.90
43089;DHT22;28709;52.030;5.652;2022-12-17T03:34:14;0.70;99.90
43089;DHT22;28709;52.030;5.652;2022-12-17T03:36:58;0.70;99.90
43089;DHT22;28709;52.030;5.652;2022-12-17T03:39:42;0.60;99.90
43089;DHT22;28709;52.030;5.652;2022-12-17T03:42:26;0.60;99.90
43089;DHT22;28709;52.030;5.652;2022-12-17T03:45:10;0.60;99.90
43089;DHT22;28709;52.030;5.652;2022-12-17T03:48:23;0.50;99.90
43089;DHT22;28709;52.030;5.652;2022-12-17T03:51:08;0.40;99.90
43089;DHT22;28709;52.030;5.652;2022-12-17T03:53:52;0.40;99.90
43089;DHT22;28709;52.030;5.652;2022-12-17T03:56:36;0.40;99.90
43089;DHT22;28709;52.030;5.652;2022-12-17T03:59:20;0.30;99.90
43089;DHT22;28709;52.030;5.652;2022-12-17T04:02:05;0.30;99.90
43089;DHT22;28709;52.030;5.652;2022-12-17T04:04:48;0.20;99.90
43089;DHT22;28709;52.030;5.652;2022-12-17T04:07:32;0.20;99.90
43089;DHT22;28709;52.030;5.652;2022-12-17T04:10:17;0.20;99.90
43089;DHT22;28709;52.030;5.652;2022-12-17T04:13:01;0.20;99.90
43089;DHT22;28709;52.030;5.652;2022-12-17T04:15:45;0.20;99.90
43089;DHT22;28709;52.030;5.652;2022-12-17T04:18:29;0.20;99.90
43089;DHT22;28709;52.030;5.652;2022-12-17T04:21:13;0.20;99.90
43089;DHT22;28709;52.030;5.652;2022-12-17T04:23:57;0.10;99.90
43089;DHT22;28709;52.030;5.652;2022-12-17T04:26:41;0.10;99.90
43089;DHT22;28709;52.030;5.652;2022-12-17T04:29:26;0.10;99.90
43089;DHT22;28709;52.030;5.652;2022-12-17T04:32:10;0.10;99.90
43089;DHT22;28709;52.030;5.652;2022-12-17T04:34:54;0.20;99.90
43089;DHT22;28709;52.030;5.652;2022-12-17T04:37:38;0.20;99.90
43089;DHT22;28709;52.030;5.652;2022-12-17T04:40:22;0.20;99.90
43089;DHT22;28709;52.030;5.652;2022-12-17T04:43:08;0.20;99.90
43089;DHT22;28709;52.030;5.652;2022-12-17T04:45:53;0.20;99.90
43089;DHT22;28709;52.030;5.652;2022-12-17T04:48:37;0.10;99.90
43089;DHT22;28709;52.030;5.652;2022-12-17T04:51:21;0.10;99.90
43089;DHT22;28709;52.030;5.652;2022-12-17T04:54:05;0.10;99.90
43089;DHT22;28709;52.030;5.652;2022-12-17T04:56:51;0.10;99.90
43089;DHT22;28709;52.030;5.652;2022-12-17T04:59:35;0.00;99.90
43089;DHT22;28709;52.030;5.652;2022-12-17T05:02:19;0.00;99.90
43089;DHT22;28709;52.030;5.652;2022-12-17T05:05:03;0.00;99.90
43089;DHT22;28709;52.030;5.652;2022-12-17T05:07:52;0.00;99.90
43089;DHT22;28709;52.030;5.652;2022-12-17T05:10:37;0.00;99.90
43089;DHT22;28709;52.030;5.652;2022-12-17T05:13:21;0.00;99.90
43089;DHT22;28709;52.030;5.652;2022-12-17T05:16:05;0.00;99.90
43089;DHT22;28709;52.030;5.652;2022-12-17T05:18:49;0.00;99.90
43089;DHT22;28709;52.030;5.652;2022-12-17T05:21:33;-0.10;99.90
43089;DHT22;28709;52.030;5.652;2022-12-17T05:24:17;-0.10;99.90
43089;DHT22;28709;52.030;5.652;2022-12-17T05:27:02;-0.10;99.90
43089;DHT22;28709;52.030;5.652;2022-12-17T05:29:46;-0.10;99.90
43089;DHT22;28709;52.030;5.652;2022-12-17T05:32:29;-0.10;99.90
43089;DHT22;28709;52.030;5.652;2022-12-17T05:35:14;-0.20;99.90
43089;DHT22;28709;52.030;5.652;2022-12-17T05:38:08;-0.20;99.90
43089;DHT22;28709;52.030;5.652;2022-12-17T05:40:57;-0.20;99.90
43089;DHT22;28709;52.030;5.652;2022-12-17T05:43:42;-0.30;99.90
43089;DHT22;28709;52.030;5.652;2022-12-17T05:46:26;-0.30;99.90
43089;DHT22;28709;52.030;5.652;2022-12-17T05:49:10;-0.30;99.90
43089;DHT22;28709;52.030;5.652;2022-12-17T05:51:54;-0.30;99.90
43089;DHT22;28709;52.030;5.652;2022-12-17T05:54:38;-0.40;99.90
43089;DHT22;28709;52.030;5.652;2022-12-17T05:57:22;-0.40;99.90
43089;DHT22;28709;52.030;5.652;2022-12-17T06:00:06;-0.40;99.90
43089;DHT22;28709;52.030;5.652;2022-12-17T06:03:00;-0.40;99.90
43089;DHT22;28709;52.030;5.652;2022-12-17T06:05:45;-0.50;99.90
43089;DHT22;28709;52.030;5.652;2022-12-17T06:08:29;-0.50;99.90
43089;DHT22;28709;52.030;5.652;2022-12-17T06:11:13;-0.50;99.90
43089;DHT22;28709;52.030;5.652;2022-12-17T06:13:57;-0.50;99.90
43089;DHT22;28709;52.030;5.652;2022-12-17T06:16:42;-0.50;99.90
43089;DHT22;28709;52.030;5.652;2022-12-17T06:19:26;-0.50;99.90
43089;DHT22;28709;52.030;5.652;2022-12-17T06:22:10;-0.50;99.90
43089;DHT22;28709;52.030;5.652;2022-12-17T06:24:55;-0.40;99.90
43089;DHT22;28709;52.030;5.652;2022-12-17T06:27:39;-0.40;99.90
43089;DHT22;28709;52.030;5.652;2022-12-17T06:30:23;-0.40;99.90
43089;DHT22;28709;52.030;5.652;2022-12-17T06:33:09;-0.40;99.90
43089;DHT22;28709;52.030;5.652;2022-12-17T06:35:55;-0.40;99.90
43089;DHT22;28709;52.030;5.652;2022-12-17T06:38:39;-0.40;99.90
43089;DHT22;28709;52.030;5.652;2022-12-17T06:41:23;-0.40;99.90
43089;DHT22;28709;52.030;5.652;2022-12-17T06:44:07;-0.40;99.90
43089;DHT22;28709;52.030;5.652;2022-12-17T06:46:51;-0.40;99.90
43089;DHT22;28709;52.030;5.652;2022-12-17T06:49:35;-0.30;99.90
43089;DHT22;28709;52.030;5.652;2022-12-17T06:52:19;-0.30;99.90
43089;DHT22;28709;52.030;5.652;2022-12-17T06:55:04;-0.30;99.90
43089;DHT22;28709;52.030;5.652;2022-12-17T06:57:53;-0.30;99.90
43089;DHT22;28709;52.030;5.652;2022-12-17T07:00:38;-0.30;99.90
43089;DHT22;28709;52.030;5.652;2022-12-17T07:03:21;-0.30;99.90
43089;DHT22;28709;52.030;5.652;2022-12-17T07:06:07;-0.40;99.90
43089;DHT22;28709;52.030;5.652;2022-12-17T07:08:51;-0.40;99.90
43089;DHT22;28709;52.030;5.652;2022-12-17T07:11:35;-0.40;99.90
43089;DHT22;28709;52.030;5.652;2022-12-17T07:14:19;-0.30;99.90
43089;DHT22;28709;52.030;5.652;2022-12-17T07:17:03;-0.30;99.90
43089;DHT22;28709;52.030;5.652;2022-12-17T07:19:47;-0.30;99.90
43089;DHT22;28709;52.030;5.652;2022-12-17T07:22:31;-0.30;99.90
43089;DHT22;28709;52.030;5.652;2022-12-17T07:25:15;-0.30;99.90
43089;DHT22;28709;52.030;5.652;2022-12-17T07:27:59;-0.30;99.90
43089;DHT22;28709;52.030;5.652;2022-12-17T07:30:43;-0.30;99.90
43089;DHT22;28709;52.030;5.652;2022-12-17T07:33:27;-0.30;99.90
43089;DHT22;28709;52.030;5.652;2022-12-17T07:36:11;-0.30;99.90
43089;DHT22;28709;52.030;5.652;2022-12-17T07:38:55;-0.30;99.90
43089;DHT22;28709;52.030;5.652;2022-12-17T07:41:39;-0.30;99.90
43089;DHT22;28709;52.030;5.652;2022-12-17T07:44:23;-0.30;99.90
43089;DHT22;28709;52.030;5.652;2022-12-17T07:47:08;-0.20;99.90
43089;DHT22;28709;52.030;5.652;2022-12-17T07:49:52;-0.20;99.90
43089;DHT22;28709;52.030;5.652;2022-12-17T07:52:36;-0.20;99.90
43089;DHT22;28709;52.030;5.652;2022-12-17T07:55:21;-0.10;99.90
43089;DHT22;28709;52.030;5.652;2022-12-17T07:58:24;-0.10;99.90
43089;DHT22;28709;52.030;5.652;2022-12-17T08:01:08;-0.10;99.90
43089;DHT22;28709;52.030;5.652;2022-12-17T08:03:53;-0.10;99.90
43089;DHT22;28709;52.030;5.652;2022-12-17T08:06:37;-0.10;99.90
43089;DHT22;28709;52.030;5.652;2022-12-17T08:09:21;-0.10;99.90
43089;DHT22;28709;52.030;5.652;2022-12-17T08:12:05;-0.10;99.90
43089;DHT22;28709;52.030;5.652;2022-12-17T08:14:49;-0.10;99.90
43089;DHT22;28709;52.030;5.652;2022-12-17T08:17:33;0.00;99.90
43089;DHT22;28709;52.030;5.652;2022-12-17T08:20:17;-0.10;99.90
43089;DHT22;28709;52.030;5.652;2022-12-17T08:23:02;-0.10;99.90
43089;DHT22;28709;52.030;5.652;2022-12-17T08:25:47;-0.10;99.90
43089;DHT22;28709;52.030;5.652;2022-12-17T08:28:31;-0.10;99.90
43089;DHT22;28709;52.030;5.652;2022-12-17T08:31:15;-0.20;99.90
43089;DHT22;28709;52.030;5.652;2022-12-17T08:34:00;-0.20;99.90
43089;DHT22;28709;52.030;5.652;2022-12-17T08:36:44;-0.20;99.90
43089;DHT22;28709;52.030;5.652;2022-12-17T08:39:28;-0.20;99.90
43089;DHT22;28709;52.030;5.652;2022-12-17T08:42:12;-0.10;99.90
43089;DHT22;28709;52.030;5.652;2022-12-17T08:44:56;-0.10;99.90
43089;DHT22;28709;52.030;5.652;2022-12-17T08:47:40;-0.10;99.90
43089;DHT22;28709;52.030;5.652;2022-12-17T08:50:24;-0.20;99.90
43089;DHT22;28709;52.030;5.652;2022-12-17T08:53:08;-0.20;99.90
43089;DHT22;28709;52.030;5.652;2022-12-17T08:55:52;-0.20;99.90
43089;DHT22;28709;52.030;5.652;2022-12-17T08:58:36;-0.20;99.90
43089;DHT22;28709;52.030;5.652;2022-12-17T09:01:20;-0.20;99.90
43089;DHT22;28709;52.030;5.652;2022-12-17T09:04:04;-0.20;99.90
43089;DHT22;28709;52.030;5.652;2022-12-17T09:06:49;-0.20;99.90
43089;DHT22;28709;52.030;5.652;2022-12-17T09:09:33;-0.10;99.90
43089;DHT22;28709;52.030;5.652;2022-12-17T09:12:17;-0.10;99.90
43089;DHT22;28709;52.030;5.652;2022-12-17T09:15:01;-0.10;99.90
43089;DHT22;28709;52.030;5.652;2022-12-17T09:17:46;-0.10;99.90
43089;DHT22;28709;52.030;5.652;2022-12-17T09:20:30;-0.10;99.90
43089;DHT22;28709;52.030;5.652;2022-12-17T09:23:15;-0.10;99.90
43089;DHT22;28709;52.030;5.652;2022-12-17T09:26:00;-0.20;99.90
43089;DHT22;28709;52.030;5.652;2022-12-17T09:28:44;-0.20;99.90
43089;DHT22;28709;52.030;5.652;2022-12-17T09:31:30;-0.10;99.90
43089;DHT22;28709;52.030;5.652;2022-12-17T09:34:15;-0.10;99.90
43089;DHT22;28709;52.030;5.652;2022-12-17T09:36:59;-0.20;99.90
43089;DHT22;28709;52.030;5.652;2022-12-17T09:39:48;-0.10;99.90
43089;DHT22;28709;52.030;5.652;2022-12-17T09:43:01;-0.10;99.90
43089;DHT22;28709;52.030;5.652;2022-12-17T09:45:54;-0.10;99.90
43089;DHT22;28709;52.030;5.652;2022-12-17T09:51:42;-0.10;99.90
43089;DHT22;28709;52.030;5.652;2022-12-17T09:54:42;0.00;99.90
43089;DHT22;28709;52.030;5.652;2022-12-17T09:57:35;0.00;99.90
43089;DHT22;28709;52.030;5.652;2022-12-17T10:00:23;0.10;99.90
43089;DHT22;28709;52.030;5.652;2022-12-17T10:03:26;0.10;99.90
43089;DHT22;28709;52.030;5.652;2022-12-17T10:06:21;0.10;99.90
43089;DHT22;28709;52.030;5.652;2022-12-17T10:09:15;0.00;99.90
43089;DHT22;28709;52.030;5.652;2022-12-17T10:12:17;0.10;99.90
43089;DHT22;28709;52.030;5.652;2022-12-17T10:15:04;0.10;99.90
43089;DHT22;28709;52.030;5.652;2022-12-17T10:17:48;0.10;99.90
43089;DHT22;28709;52.030;5.652;2022-12-17T10:20:38;0.10;99.90
43089;DHT22;28709;52.030;5.652;2022-12-17T10:23:27;0.10;99.90
43089;DHT22;28709;52.030;5.652;2022-12-17T10:26:20;0.00;99.90
43089;DHT22;28709;52.030;5.652;2022-12-17T10:29:10;0.00;99.90
43089;DHT22;28709;52.030;5.652;2022-12-17T10:31:58;0.00;99.90
43089;DHT22;28709;52.030;5.652;2022-12-17T10:34:45;0.00;99.90
43089;DHT22;28709;52.030;5.652;2022-12-17T10:37:31;0.00;99.90
43089;DHT22;28709;52.030;5.652;2022-12-17T10:40:27;0.00;99.90
43089;DHT22;28709;52.030;5.652;2022-12-17T10:46:10;0.10;99.90
43089;DHT22;28709;52.030;5.652;2022-12-17T10:49:13;0.10;99.90
43089;DHT22;28709;52.030;5.652;2022-12-17T10:55:04;0.10;99.90
43089;DHT22;28709;52.030;5.652;2022-12-17T10:57:50;0.10;99.90
43089;DHT22;28709;52.030;5.652;2022-12-17T11:00:41;0.20;99.90
43089;DHT22;28709;52.030;5.652;2022-12-17T11:06:26;0.10;99.90
43089;DHT22;28709;52.030;5.652;2022-12-17T11:09:45;0.10;99.90
43089;DHT22;28709;52.030;5.652;2022-12-17T11:12:47;0.10;99.90
43089;DHT22;28709;52.030;5.652;2022-12-17T11:18:35;0.10;99.90
43089;DHT22;28709;52.030;5.652;2022-12-17T11:21:43;0.10;99.90
43089;DHT22;28709;52.030;5.652;2022-12-17T11:24:33;0.10;99.90
43089;DHT22;28709;52.030;5.652;2022-12-17T11:27:26;0.20;99.90
43089;DHT22;28709;52.030;5.652;2022-12-17T11:30:12;0.20;99.90
43089;DHT22;28709;52.030;5.652;2022-12-17T11:33:21;0.20;99.90
43089;DHT22;28709;52.030;5.652;2022-12-17T11:36:17;0.20;99.90
43089;DHT22;28709;52.030;5.652;2022-12-17T11:42:25;0.20;99.90
43089;DHT22;28709;52.030;5.652;2022-12-17T11:48:23;0.10;99.90
43089;DHT22;28709;52.030;5.652;2022-12-17T11:51:38;0.00;99.90
43089;DHT22;28709;52.030;5.652;2022-12-17T11:54:35;0.00;99.90
43089;DHT22;28709;52.030;5.652;2022-12-17T12:04:16;-0.10;99.90
43089;DHT22;28709;52.030;5.652;2022-12-17T12:10:07;-0.20;99.90
43089;DHT22;28709;52.030;5.652;2022-12-17T12:16:11;-0.20;99.90
43089;DHT22;28709;52.030;5.652;2022-12-17T12:19:34;-0.20;99.90
43089;DHT22;28709;52.030;5.652;2022-12-17T12:25:33;-0.20;99.90
43089;DHT22;28709;52.030;5.652;2022-12-17T12:32:06;-0.30;99.90
43089;DHT22;28709;52.030;5.652;2022-12-17T12:34:43;-0.30;99.90
43089;DHT22;28709;52.030;5.652;2022-12-17T12:37:28;-0.30;99.90
43089;DHT22;28709;52.030;5.652;2022-12-17T12:43:27;-0.20;99.90
43089;DHT22;28709;52.030;5.652;2022-12-17T12:46:19;-0.20;99.90
43089;DHT22;28709;52.030;5.652;2022-12-17T12:49:07;-0.10;99.90
43089;DHT22;28709;52.030;5.652;2022-12-17T12:51:58;-0.10;99.90
43089;DHT22;28709;52.030;5.652;2022-12-17T12:57:35;-0.10;99.90
43089;DHT22;28709;52.030;5.652;2022-12-17T13:06:07;-0.10;99.90
43089;DHT22;28709;52.030;5.652;2022-12-17T13:08:33;-0.20;99.90
43089;DHT22;28709;52.030;5.652;2022-12-17T13:11:27;-0.20;99.90
43089;DHT22;28709;52.030;5.652;2022-12-17T13:13:58;-0.20;99.90
43089;DHT22;28709;52.030;5.652;2022-12-17T13:19:03;-0.20;99.90
43089;DHT22;28709;52.030;5.652;2022-12-17T13:21:29;-0.20;99.90
43089;DHT22;28709;52.030;5.652;2022-12-17T13:23:56;-0.20;99.90
43089;DHT22;28709;52.030;5.652;2022-12-17T13:26:41;-0.10;99.90
43089;DHT22;28709;52.030;5.652;2022-12-17T13:29:28;0.00;99.90
43089;DHT22;28709;52.030;5.652;2022-12-17T13:32:22;0.00;99.90
43089;DHT22;28709;52.030;5.652;2022-12-17T13:35:19;-0.10;99.90
43089;DHT22;28709;52.030;5.652;2022-12-17T13:43:40;-0.10;99.90
43089;DHT22;28709;52.030;5.652;2022-12-17T13:46:17;-0.10;99.90
43089;DHT22;28709;52.030;5.652;2022-12-17T13:48:42;-0.10;99.90
43089;DHT22;28709;52.030;5.652;2022-12-17T13:51:19;-0.10;99.90
43089;DHT22;28709;52.030;5.652;2022-12-17T13:53:56;-0.20;99.90
43089;DHT22;28709;52.030;5.652;2022-12-17T13:56:28;-0.20;99.90
43089;DHT22;28709;52.030;5.652;2022-12-17T13:58:55;-0.20;99.90
43089;DHT22;28709;52.030;5.652;2022-12-17T14:01:21;-0.20;99.90
43089;DHT22;28709;52.030;5.652;2022-12-17T14:04:05;-0.20;99.90
43089;DHT22;28709;52.030;5.652;2022-12-17T14:06:36;-0.30;99.90
43089;DHT22;28709;52.030;5.652;2022-12-17T14:09:02;-0.20;99.90
43089;DHT22;28709;52.030;5.652;2022-12-17T14:11:30;-0.20;99.90
43089;DHT22;28709;52.030;5.652;2022-12-17T14:14:39;-0.20;99.90
43089;DHT22;28709;52.030;5.652;2022-12-17T14:17:03;-0.20;99.90
43089;DHT22;28709;52.030;5.652;2022-12-17T14:19:31;-0.30;99.90
43089;DHT22;28709;52.030;5.652;2022-12-17T14:21:57;-0.30;99.90
43089;DHT22;28709;52.030;5.652;2022-12-17T14:24:25;-0.40;99.90
43089;DHT22;28709;52.030;5.652;2022-12-17T14:26:56;-0.40;99.90
43089;DHT22;28709;52.030;5.652;2022-12-17T14:29:27;-0.40;99.90
43089;DHT22;28709;52.030;5.652;2022-12-17T14:31:55;-0.40;99.90
43089;DHT22;28709;52.030;5.652;2022-12-17T14:34:22;-0.40;99.90
43089;DHT22;28709;52.030;5.652;2022-12-17T14:36:56;-0.40;99.90
43089;DHT22;28709;52.030;5.652;2022-12-17T14:41:48;-0.40;99.90
43089;DHT22;28709;52.030;5.652;2022-12-17T14:44:33;-0.40;99.90
43089;DHT22;28709;52.030;5.652;2022-12-17T14:47:19;-0.40;99.90
43089;DHT22;28709;52.030;5.652;2022-12-17T14:50:00;-0.40;99.90
43089;DHT22;28709;52.030;5.652;2022-12-17T14:52:42;-0.40;99.90
43089;DHT22;28709;52.030;5.652;2022-12-17T14:57:47;-0.40;99.90
43089;DHT22;28709;52.030;5.652;2022-12-17T15:00:13;-0.50;99.90
43089;DHT22;28709;52.030;5.652;2022-12-17T15:02:41;-0.50;99.90
43089;DHT22;28709;52.030;5.652;2022-12-17T15:05:12;-0.60;99.90
43089;DHT22;28709;52.030;5.652;2022-12-17T15:07:38;-0.50;99.90
43089;DHT22;28709;52.030;5.652;2022-12-17T15:10:13;-0.60;99.90
43089;DHT22;28709;52.030;5.652;2022-12-17T15:12:41;-0.60;99.90
43089;DHT22;28709;52.030;5.652;2022-12-17T15:15:12;-0.60;99.90
43089;DHT22;28709;52.030;5.652;2022-12-17T15:17:37;-0.60;99.90
43089;DHT22;28709;52.030;5.652;2022-12-17T15:20:03;-0.70;99.90
43089;DHT22;28709;52.030;5.652;2022-12-17T15:22:29;-0.60;99.90
43089;DHT22;28709;52.030;5.652;2022-12-17T15:24:56;-0.70;99.90
43089;DHT22;28709;52.030;5.652;2022-12-17T15:27:22;-0.70;99.90
43089;DHT22;28709;52.030;5.652;2022-12-17T15:29:47;-0.70;99.90
43089;DHT22;28709;52.030;5.652;2022-12-17T15:32:21;-0.70;99.90
43089;DHT22;28709;52.030;5.652;2022-12-17T15:34:47;-0.70;99.90
43089;DHT22;28709;52.030;5.652;2022-12-17T15:37:14;-0.80;99.90
43089;DHT22;28709;52.030;5.652;2022-12-17T15:39:40;-0.80;99.90
43089;DHT22;28709;52.030;5.652;2022-12-17T15:42:07;-0.80;99.90
43089;DHT22;28709;52.030;5.652;2022-12-17T15:44:51;-0.80;99.90
43089;DHT22;28709;52.030;5.652;2022-12-17T15:47:17;-0.80;99.90
43089;DHT22;28709;52.030;5.652;2022-12-17T15:49:44;-0.70;99.90
43089;DHT22;28709;52.030;5.652;2022-12-17T15:52:10;-0.70;99.90
43089;DHT22;28709;52.030;5.652;2022-12-17T15:54:41;-0.70;99.90
43089;DHT22;28709;52.030;5.652;2022-12-17T15:57:07;-0.70;99.90
43089;DHT22;28709;52.030;5.652;2022-12-17T15:59:32;-0.70;99.90
43089;DHT22;28709;52.030;5.652;2022-12-17T16:01:58;-0.70;99.90
43089;DHT22;28709;52.030;5.652;2022-12-17T16:04:24;-0.80;99.90
43089;DHT22;28709;52.030;5.652;2022-12-17T16:06:50;-0.90;99.90
43089;DHT22;28709;52.030;5.652;2022-12-17T16:09:15;-0.90;99.90
43089;DHT22;28709;52.030;5.652;2022-12-17T16:11:41;-0.90;99.90
43089;DHT22;28709;52.030;5.652;2022-12-17T16:14:07;-1.00;99.90
43089;DHT22;28709;52.030;5.652;2022-12-17T16:16:33;-1.00;99.90
43089;DHT22;28709;52.030;5.652;2022-12-17T16:18:59;-1.00;99.90
43089;DHT22;28709;52.030;5.652;2022-12-17T16:21:27;-1.00;99.90
43089;DHT22;28709;52.030;5.652;2022-12-17T16:23:53;-1.10;99.90
43089;DHT22;28709;52.030;5.652;2022-12-17T16:26:18;-1.10;99.90
43089;DHT22;28709;52.030;5.652;2022-12-17T16:28:44;-1.10;99.90
43089;DHT22;28709;52.030;5.652;2022-12-17T16:31:12;-1.20;99.90
43089;DHT22;28709;52.030;5.652;2022-12-17T16:33:40;-1.10;99.90
43089;DHT22;28709;52.030;5.652;2022-12-17T16:36:08;-1.20;99.90
43089;DHT22;28709;52.030;5.652;2022-12-17T16:38:44;-1.20;99.90
43089;DHT22;28709;52.030;5.652;2022-12-17T16:41:11;-1.30;99.90
43089;DHT22;28709;52.030;5.652;2022-12-17T16:43:37;-1.30;99.90
43089;DHT22;28709;52.030;5.652;2022-12-17T16:46:02;-1.40;99.90
43089;DHT22;28709;52.030;5.652;2022-12-17T16:48:28;-1.40;99.90
43089;DHT22;28709;52.030;5.652;2022-12-17T16:50:54;-1.40;99.90
43089;DHT22;28709;52.030;5.652;2022-12-17T16:53:19;-1.40;99.90
43089;DHT22;28709;52.030;5.652;2022-12-17T16:55:47;-1.40;99.90
43089;DHT22;28709;52.030;5.652;2022-12-17T16:58:14;-1.40;99.90
43089;DHT22;28709;52.030;5.652;2022-12-17T17:00:40;-1.40;99.90
43089;DHT22;28709;52.030;5.652;2022-12-17T17:03:06;-1.40;99.90
43089;DHT22;28709;52.030;5.652;2022-12-17T17:05:34;-1.40;99.90
43089;DHT22;28709;52.030;5.652;2022-12-17T17:08:00;-1.40;99.90
43089;DHT22;28709;52.030;5.652;2022-12-17T17:10:27;-1.40;99.90
43089;DHT22;28709;52.030;5.652;2022-12-17T17:12:53;-1.40;99.90
43089;DHT22;28709;52.030;5.652;2022-12-17T17:15:20;-1.50;99.90
43089;DHT22;28709;52.030;5.652;2022-12-17T17:17:47;-1.50;99.90
43089;DHT22;28709;52.030;5.652;2022-12-17T17:20:13;-1.50;99.90
43089;DHT22;28709;52.030;5.652;2022-12-17T17:22:39;-1.60;99.90
43089;DHT22;28709;52.030;5.652;2022-12-17T17:25:05;-1.60;99.90
43089;DHT22;28709;52.030;5.652;2022-12-17T17:27:30;-1.60;99.90
43089;DHT22;28709;52.030;5.652;2022-12-17T17:29:56;-1.60;99.90
43089;DHT22;28709;52.030;5.652;2022-12-17T17:32:23;-1.50;99.90
43089;DHT22;28709;52.030;5.652;2022-12-17T17:34:49;-1.50;99.90
43089;DHT22;28709;52.030;5.652;2022-12-17T17:37:15;-1.50;99.90
43089;DHT22;28709;52.030;5.652;2022-12-17T17:39:41;-1.50;99.90
43089;DHT22;28709;52.030;5.652;2022-12-17T17:42:06;-1.50;99.90
43089;DHT22;28709;52.030;5.652;2022-12-17T17:44:32;-1.50;99.90
43089;DHT22;28709;52.030;5.652;2022-12-17T17:46:58;-1.50;99.90
43089;DHT22;28709;52.030;5.652;2022-12-17T17:49:23;-1.50;99.90
43089;DHT22;28709;52.030;5.652;2022-12-17T17:51:49;-1.50;99.90
43089;DHT22;28709;52.030;5.652;2022-12-17T17:54:15;-1.50;99.90
43089;DHT22;28709;52.030;5.652;2022-12-17T17:56:42;-1.50;99.90
43089;DHT22;28709;52.030;5.652;2022-12-17T17:59:10;-1.50;99.90
43089;DHT22;28709;52.030;5.652;2022-12-17T18:01:42;-1.50;99.90
43089;DHT22;28709;52.030;5.652;2022-12-17T18:04:11;-1.50;99.90
43089;DHT22;28709;52.030;5.652;2022-12-17T18:06:38;-1.50;99.90
43089;DHT22;28709;52.030;5.652;2022-12-17T18:09:04;-1.50;99.90
43089;DHT22;28709;52.030;5.652;2022-12-17T18:11:31;-1.50;99.90
43089;DHT22;28709;52.030;5.652;2022-12-17T18:13:58;-1.50;99.90
43089;DHT22;28709;52.030;5.652;2022-12-17T18:16:49;-1.50;99.90
43089;DHT22;28709;52.030;5.652;2022-12-17T18:19:19;-1.50;99.90
43089;DHT22;28709;52.030;5.652;2022-12-17T18:21:46;-1.50;99.90
43089;DHT22;28709;52.030;5.652;2022-12-17T18:24:14;-1.60;99.90
43089;DHT22;28709;52.030;5.652;2022-12-17T18:26:41;-1.60;99.90